Time;durP1;ratioP1;P1;durP2;ratioP2;P2;SDS_P1;SDS_P2;PMS_P1;PMS_P2;Temp;Humidity;BMP_temperature;BMP_pressure;BME280_temperature;BME280_humidity;BME280_pressure;Samples;Min_cycle;Max_cycle;Signal;HPM_P1;HPM_P2
2022/01/14 00:01:38;;;;;;;7.97;5.93;;;15.80;51.00;;;;;;5056678;28;20488;-67
2022/01/14 00:04:05;;;;;;;9.23;6.63;;;15.90;51.10;;;;;;5056435;28;20052;-67
2022/01/14 00:06:31;;;;;;;8.32;5.78;;;15.80;51.00;;;;;;5056627;28;20442;-67
2022/01/14 00:09:05;;;;;;;10.27;7.03;;;15.80;51.00;;;;;;5056721;28;20124;-67
2022/01/14 00:11:32;;;;;;;8.95;6.80;;;15.80;51.00;;;;;;5056784;28;20051;-66
2022/01/14 00:16:45;;;;;;;9.82;6.10;;;15.80;51.00;;;;;;5089314;28;20145;-67
2022/01/14 00:19:14;;;;;;;8.00;5.97;;;15.80;51.10;;;;;;5088061;28;20484;-67
2022/01/14 00:21:42;;;;;;;9.43;5.97;;;15.80;51.10;;;;;;5088097;28;20040;-67
2022/01/14 00:32:41;;;;;;;10.80;6.95;;;15.80;51.10;;;;;;5128810;28;20043;-67
2022/01/14 00:35:07;;;;;;;10.52;6.53;;;15.80;51.00;;;;;;5128749;27;20046;-67
2022/01/14 00:37:33;;;;;;;9.85;7.43;;;15.80;51.10;;;;;;5128720;28;20047;-66
2022/01/14 00:39:59;;;;;;;9.82;6.93;;;15.80;51.10;;;;;;5128789;28;20146;-67
2022/01/14 00:42:24;;;;;;;9.38;6.60;;;15.80;51.10;;;;;;5130220;28;20084;-68
2022/01/14 00:44:50;;;;;;;8.50;6.38;;;15.80;51.20;;;;;;5129828;28;20086;-67
2022/01/14 00:47:16;;;;;;;8.68;6.20;;;15.80;51.20;;;;;;5129904;28;20045;-67
2022/01/14 00:49:41;;;;;;;10.10;6.00;;;15.70;51.20;;;;;;5128509;28;20082;-66
2022/01/14 00:52:07;;;;;;;8.43;6.43;;;15.80;51.20;;;;;;5128766;28;20050;-67
2022/01/14 00:54:32;;;;;;;9.07;6.13;;;15.80;51.20;;;;;;5128397;28;20503;-67
2022/01/14 00:59:42;;;;;;;8.85;6.30;;;15.70;51.20;;;;;;5130133;27;20353;-67
2022/01/14 01:02:09;;;;;;;8.18;6.28;;;15.70;51.20;;;;;;5146164;27;20043;-67
2022/01/14 01:04:38;;;;;;;12.15;6.93;;;15.70;51.20;;;;;;5129094;27;20043;-68
2022/01/14 01:07:09;;;;;;;9.95;6.45;;;15.70;51.30;;;;;;5130112;27;20085;-67
2022/01/14 01:09:38;;;;;;;9.27;6.35;;;15.70;51.30;;;;;;5129002;28;20051;-67
2022/01/14 01:14:50;;;;;;;9.95;6.50;;;15.70;51.30;;;;;;5089267;27;20455;-67
2022/01/14 01:17:17;;;;;;;9.57;6.20;;;15.70;51.30;;;;;;5088369;28;20105;-66
2022/01/14 01:19:43;;;;;;;9.88;7.30;;;15.70;51.40;;;;;;5088026;28;20036;-67
2022/01/14 01:22:09;;;;;;;10.98;7.57;;;15.70;51.40;;;;;;5088225;28;20072;-67
2022/01/14 01:24:35;;;;;;;8.70;5.90;;;15.70;51.40;;;;;;5089309;28;20471;-67
2022/01/14 01:27:07;;;;;;;9.48;5.65;;;15.70;51.40;;;;;;5088300;28;20036;-67
2022/01/14 01:29:49;;;;;;;6.60;4.93;;;15.70;51.40;;;;;;5088208;28;20048;-67
2022/01/14 01:32:15;;;;;;;7.93;5.13;;;15.90;51.40;;;;;;5088975;28;20115;-68
2022/01/14 01:34:40;;;;;;;8.25;5.40;;;16.10;51.10;;;;;;5087674;28;20484;-68
2022/01/14 01:37:06;;;;;;;9.02;5.53;;;16.30;50.80;;;;;;5087714;28;20086;-68
2022/01/14 01:39:35;;;;;;;8.02;5.30;;;16.60;50.30;;;;;;5089150;28;20029;-67
2022/01/14 01:42:05;;;;;;;9.40;4.72;;;16.90;49.70;;;;;;5087964;28;20309;-68
2022/01/14 01:44:33;;;;;;;7.72;5.10;;;17.20;49.10;;;;;;5088095;28;20414;-67
2022/01/14 01:46:59;;;;;;;7.03;4.63;;;17.50;48.60;;;;;;5088616;28;20072;-67
2022/01/14 01:49:29;;;;;;;6.88;4.50;;;17.80;48.00;;;;;;5087834;28;20123;-67
2022/01/14 01:51:55;;;;;;;8.75;4.90;;;18.10;47.60;;;;;;5087712;28;20045;-67
2022/01/14 01:54:26;;;;;;;6.32;4.47;;;18.30;47.10;;;;;;5088704;28;20045;-67
2022/01/14 01:56:52;;;;;;;6.93;5.22;;;18.60;46.60;;;;;;5087294;28;20041;-67
2022/01/14 01:59:22;;;;;;;6.35;4.13;;;18.80;46.20;;;;;;5087535;28;20043;-67
2022/01/14 02:01:49;;;;;;;7.50;4.13;;;19.00;45.80;;;;;;5087185;28;20040;-67
2022/01/14 02:04:15;;;;;;;5.75;4.05;;;19.20;45.50;;;;;;5088530;28;20040;-67
2022/01/14 02:06:42;;;;;;;7.15;3.95;;;19.30;45.10;;;;;;5087400;28;20055;-68
2022/01/14 02:09:12;;;;;;;5.60;4.35;;;19.50;44.80;;;;;;5087378;28;20040;-69
2022/01/14 02:11:38;;;;;;;6.40;4.22;;;19.70;44.40;;;;;;5088273;28;20036;-68
2022/01/14 02:14:25;;;;;;;5.43;3.78;;;19.80;44.10;;;;;;5086743;28;20405;-68
2022/01/14 02:22:48;;;;;;;4.88;3.58;;;20.20;43.50;;;;;;5086652;28;20076;-67
2022/01/14 02:25:16;;;;;;;7.70;3.80;;;20.40;43.20;;;;;;5078177;28;20375;-67
2022/01/14 02:27:43;;;;;;;5.57;3.60;;;20.40;42.90;;;;;;5073444;28;20051;-67
2022/01/14 02:30:18;;;;;;;5.95;4.00;;;20.50;42.80;;;;;;5073539;28;20044;-67
2022/01/14 02:32:43;;;;;;;4.80;3.67;;;20.60;42.70;;;;;;5074461;28;20067;-68
2022/01/14 02:35:09;;;;;;;5.47;3.28;;;20.70;42.50;;;;;;5073324;28;20549;-67
2022/01/14 02:37:35;;;;;;;5.65;3.90;;;20.70;42.30;;;;;;5074395;28;20029;-67
2022/01/14 02:40:04;;;;;;;5.15;3.35;;;20.80;42.20;;;;;;5073376;28;20055;-67
2022/01/14 02:42:30;;;;;;;6.57;3.72;;;20.90;42.10;;;;;;5073014;28;20074;-67
2022/01/14 02:45:01;;;;;;;5.68;3.92;;;20.90;41.90;;;;;;5073268;28;20072;-67
2022/01/14 02:47:30;;;;;;;5.40;3.15;;;21.00;41.80;;;;;;5073217;28;20044;-66
2022/01/14 02:49:56;;;;;;;5.80;3.50;;;21.00;41.70;;;;;;5074180;28;20169;-67
2022/01/14 02:52:42;;;;;;;5.63;3.55;;;21.10;41.70;;;;;;5073023;28;20452;-67
2022/01/14 02:55:16;;;;;;;4.95;3.58;;;21.10;41.50;;;;;;5072877;28;20052;-67
2022/01/14 02:57:44;;;;;;;5.43;3.58;;;21.10;41.50;;;;;;5072999;28;20033;-67
2022/01/14 03:00:11;;;;;;;4.45;3.15;;;21.20;41.40;;;;;;5072969;28;20534;-68
2022/01/14 03:02:42;;;;;;;5.35;3.78;;;21.20;41.30;;;;;;5073847;28;20041;-67
2022/01/14 03:05:09;;;;;;;4.07;2.95;;;21.30;41.30;;;;;;5073867;28;20119;-67
2022/01/14 03:07:36;;;;;;;4.32;3.33;;;21.30;41.20;;;;;;5072906;28;20058;-67
2022/01/14 03:10:02;;;;;;;5.10;3.55;;;21.30;41.10;;;;;;5072762;28;20086;-67
2022/01/14 03:12:28;;;;;;;4.90;3.35;;;21.30;41.10;;;;;;5072084;28;20041;-67
2022/01/14 03:14:57;;;;;;;5.80;3.20;;;21.30;41.10;;;;;;5072016;28;20071;-67
2022/01/14 03:17:22;;;;;;;4.90;3.25;;;21.40;41.00;;;;;;5070321;28;20079;-68
2022/01/14 03:19:49;;;;;;;6.10;3.40;;;21.40;40.90;;;;;;5073752;28;20518;-67
2022/01/14 03:22:34;;;;;;;4.93;3.45;;;21.40;40.90;;;;;;5072574;28;20044;-67
2022/01/14 03:27:46;;;;;;;5.60;3.50;;;21.40;40.80;;;;;;5071940;28;20060;-67
2022/01/14 03:30:12;;;;;;;5.32;3.50;;;21.30;40.90;;;;;;5072048;28;20105;-67
2022/01/14 03:32:42;;;;;;;3.63;2.65;;;21.30;40.90;;;;;;5073500;28;20067;-67
2022/01/14 03:35:10;;;;;;;4.80;2.90;;;21.20;41.00;;;;;;5072253;28;20056;-67
2022/01/14 03:37:36;;;;;;;5.03;3.00;;;21.20;41.80;;;;;;5071277;28;20053;-67
2022/01/14 03:40:04;;;;;;;5.47;3.42;;;21.20;41.10;;;;;;5072183;28;20094;-67
2022/01/14 03:42:30;;;;;;;5.05;2.53;;;21.30;41.10;;;;;;5072086;28;20463;-67
2022/01/14 03:44:56;;;;;;;4.78;3.30;;;21.30;41.10;;;;;;5072126;28;20302;-67
2022/01/14 03:47:21;;;;;;;3.92;3.22;;;21.30;41.00;;;;;;5073091;28;20419;-67
2022/01/14 03:49:47;;;;;;;6.53;3.03;;;21.30;41.00;;;;;;5071992;28;20113;-67
2022/01/14 03:52:13;;;;;;;5.13;3.30;;;21.30;41.00;;;;;;5071964;28;20048;-67
2022/01/14 03:54:39;;;;;;;5.25;3.83;;;21.40;41.00;;;;;;5072926;28;20052;-67
2022/01/14 03:57:06;;;;;;;5.60;3.78;;;21.40;40.90;;;;;;5072733;28;20028;-67
2022/01/14 03:59:32;;;;;;;5.63;3.50;;;21.40;40.80;;;;;;5071810;28;20100;-68
2022/01/14 04:01:57;;;;;;;7.07;3.25;;;21.40;40.80;;;;;;5071751;28;20068;-67
2022/01/14 04:04:23;;;;;;;5.30;3.00;;;21.50;40.70;;;;;;5071769;28;20562;-67
2022/01/14 04:06:49;;;;;;;5.22;3.00;;;21.50;40.70;;;;;;5071642;28;20040;-67
2022/01/14 04:09:15;;;;;;;4.40;3.25;;;21.50;40.70;;;;;;5072776;28;20476;-67
2022/01/14 04:11:45;;;;;;;5.05;3.10;;;21.50;40.70;;;;;;5072492;28;20041;-67
2022/01/14 04:15:36;;;;;;;4.18;3.30;;;21.50;40.60;;;;;;5054911;28;20060;-67
2022/01/14 04:16:57;;;;;;;4.45;2.85;;;21.50;40.60;;;;;;5072181;28;20044;-67
2022/01/14 04:19:26;;;;;;;5.15;2.88;;;21.50;40.60;;;;;;5071265;28;20048;-67
2022/01/14 04:21:51;;;;;;;5.82;2.95;;;21.40;40.60;;;;;;5071120;28;20041;-67
2022/01/14 04:24:17;;;;;;;5.10;2.92;;;21.40;40.60;;;;;;5072325;28;20071;-67
2022/01/14 04:26:43;;;;;;;5.53;2.67;;;21.40;40.60;;;;;;5072546;28;20136;-67
2022/01/14 04:29:11;;;;;;;4.35;3.13;;;21.40;40.60;;;;;;5072466;28;20040;-67
2022/01/14 04:31:37;;;;;;;4.40;3.20;;;21.40;40.60;;;;;;5071281;28;20070;-68
2022/01/14 04:34:03;;;;;;;4.60;2.75;;;21.40;40.70;;;;;;5071170;28;20472;-67
2022/01/14 04:36:28;;;;;;;7.00;4.25;;;21.40;40.70;;;;;;5072182;28;20480;-68
2022/01/14 04:38:57;;;;;;;4.90;2.78;;;21.40;40.70;;;;;;5071015;28;20036;-67
2022/01/14 04:41:22;;;;;;;3.53;3.08;;;21.40;40.80;;;;;;5071036;28;20040;-67
2022/01/14 04:43:48;;;;;;;5.18;3.03;;;21.30;40.70;;;;;;5070889;28;20373;-68
2022/01/14 04:46:47;;;;;;;4.07;2.70;;;21.30;40.70;;;;;;5072015;28;20105;-68
2022/01/14 04:49:02;;;;;;;5.57;2.88;;;21.30;40.80;;;;;;5070694;28;20051;-67
2022/01/14 04:51:28;;;;;;;4.70;3.10;;;21.30;40.80;;;;;;5072005;28;20123;-67
2022/01/14 04:53:54;;;;;;;4.97;3.20;;;21.30;40.80;;;;;;5070516;28;20037;-69
2022/01/14 04:56:19;;;;;;;4.55;2.90;;;21.30;40.80;;;;;;5070717;28;20036;-68
2022/01/14 04:58:45;;;;;;;4.85;2.80;;;21.30;40.80;;;;;;5070624;28;20033;-69
2022/01/14 05:01:10;;;;;;;5.32;3.25;;;21.40;40.80;;;;;;5070901;28;20308;-67
2022/01/14 05:03:36;;;;;;;5.40;3.33;;;21.30;40.80;;;;;;5070807;28;20396;-69
2022/01/14 05:06:03;;;;;;;7.38;3.85;;;21.30;40.70;;;;;;5070874;28;20037;-67
2022/01/14 05:08:38;;;;;;;5.22;3.47;;;21.30;40.70;;;;;;5071675;28;20041;-67
2022/01/14 05:11:23;;;;;;;5.78;3.30;;;21.30;40.70;;;;;;5070841;28;20102;-68
2022/01/14 05:13:51;;;;;;;4.00;2.80;;;21.30;40.70;;;;;;5069788;28;20052;-68
2022/01/14 05:16:17;;;;;;;5.85;3.08;;;21.30;40.70;;;;;;5070570;28;20553;-67
2022/01/14 05:18:43;;;;;;;5.28;3.60;;;21.30;40.70;;;;;;5070710;28;20040;-68
2022/01/14 05:21:09;;;;;;;4.70;2.72;;;21.30;40.70;;;;;;5071754;28;20045;-67
2022/01/14 05:23:35;;;;;;;6.07;3.25;;;21.40;40.70;;;;;;5070422;28;20118;-68
2022/01/14 05:26:04;;;;;;;3.45;2.75;;;21.30;40.70;;;;;;5070724;28;20040;-67
2022/01/14 05:28:29;;;;;;;5.60;2.85;;;21.30;40.70;;;;;;5070267;28;20127;-68
2022/01/14 05:30:55;;;;;;;5.25;2.75;;;21.40;40.80;;;;;;5070630;28;20128;-67
2022/01/14 05:33:21;;;;;;;3.17;2.53;;;21.30;40.70;;;;;;5070184;28;20044;-67
2022/01/14 05:35:46;;;;;;;5.72;3.17;;;21.40;40.70;;;;;;5071632;28;20094;-68
2022/01/14 05:38:12;;;;;;;4.78;3.03;;;21.40;40.70;;;;;;5070530;28;20062;-69
2022/01/14 05:40:37;;;;;;;3.78;2.45;;;21.30;40.60;;;;;;5070505;28;20392;-69
2022/01/14 05:43:03;;;;;;;5.85;3.28;;;21.30;40.60;;;;;;5070282;28;20480;-71
2022/01/14 05:45:31;;;;;;;5.00;2.97;;;21.40;40.80;;;;;;5070112;28;20041;-68
2022/01/14 05:47:57;;;;;;;4.72;3.03;;;21.30;40.70;;;;;;5070412;28;20093;-69
2022/01/14 05:50:25;;;;;;;3.58;2.80;;;21.30;40.70;;;;;;5070118;28;20445;-68
2022/01/14 05:52:50;;;;;;;4.15;2.83;;;21.30;40.80;;;;;;5071493;28;20408;-69
2022/01/14 05:55:19;;;;;;;3.65;2.90;;;21.20;40.70;;;;;;5070314;28;20053;-68
2022/01/14 05:57:45;;;;;;;3.78;2.10;;;21.20;40.80;;;;;;5070122;28;20154;-69
2022/01/14 06:00:14;;;;;;;4.55;3.17;;;21.20;40.80;;;;;;5071628;28;20235;-69
2022/01/14 06:02:40;;;;;;;4.63;3.25;;;21.20;40.80;;;;;;5075112;28;20451;-68
2022/01/14 06:05:06;;;;;;;4.10;2.70;;;21.10;40.80;;;;;;5073656;28;20124;-67
2022/01/14 06:07:32;;;;;;;4.25;3.17;;;21.10;40.90;;;;;;5073964;28;20078;-69
2022/01/14 06:09:58;;;;;;;5.93;3.05;;;21.10;41.00;;;;;;5073584;28;20044;-68
2022/01/14 06:12:23;;;;;;;4.95;2.80;;;21.10;41.00;;;;;;5075002;28;20086;-69
2022/01/14 06:14:49;;;;;;;3.85;2.58;;;21.10;41.00;;;;;;5073219;28;20049;-69
2022/01/14 06:17:14;;;;;;;4.63;2.92;;;21.10;41.00;;;;;;5073797;28;20041;-68
2022/01/14 06:19:40;;;;;;;5.80;3.47;;;21.10;41.00;;;;;;5073486;28;20044;-67
2022/01/14 06:22:06;;;;;;;5.03;2.58;;;21.10;41.00;;;;;;5074605;28;20093;-67
2022/01/14 06:24:31;;;;;;;3.13;2.20;;;21.00;41.70;;;;;;5073660;28;20041;-68
2022/01/14 06:26:57;;;;;;;4.00;2.67;;;21.10;41.00;;;;;;5073699;28;20054;-68
2022/01/14 06:29:26;;;;;;;6.25;3.13;;;21.10;41.00;;;;;;5073333;28;20162;-69
2022/01/14 06:31:51;;;;;;;4.38;2.78;;;21.00;41.50;;;;;;5073707;28;20063;-69
2022/01/14 06:34:20;;;;;;;5.28;2.72;;;21.00;41.80;;;;;;5072719;28;20071;-69
2022/01/14 06:36:48;;;;;;;5.18;3.42;;;20.90;41.90;;;;;;5073012;28;20024;-71
2022/01/14 06:39:14;;;;;;;3.92;2.15;;;20.90;42.20;;;;;;5071441;28;20039;-73
2022/01/14 06:41:39;;;;;;;5.00;2.55;;;20.80;42.40;;;;;;5072333;28;20394;-71
2022/01/14 06:44:07;;;;;;;3.78;2.80;;;20.90;42.60;;;;;;5074120;28;20036;-71
2022/01/14 06:46:33;;;;;;;5.00;2.60;;;20.90;42.50;;;;;;5072537;28;20533;-71
2022/01/14 06:48:59;;;;;;;4.00;2.47;;;20.90;42.40;;;;;;5072438;28;20044;-73
2022/01/14 06:51:24;;;;;;;5.18;3.63;;;21.00;42.30;;;;;;5072938;28;20036;-71
2022/01/14 06:53:53;;;;;;;7.47;5.18;;;21.10;42.20;;;;;;5069262;28;20120;-70
2022/01/14 06:56:19;;;;;;;10.13;6.00;;;21.10;41.20;;;;;;5062851;28;20044;-71
2022/01/14 06:58:45;;;;;;;10.35;6.43;;;21.10;40.60;;;;;;5067050;28;20127;-70
2022/01/14 07:01:11;;;;;;;7.03;4.78;;;21.10;40.20;;;;;;5067294;28;20054;-71
2022/01/14 07:03:36;;;;;;;5.00;4.25;;;21.10;40.20;;;;;;5067280;28;20463;-72
2022/01/14 07:06:02;;;;;;;8.60;3.20;;;21.20;40.20;;;;;;5068109;28;20040;-71
2022/01/14 07:08:28;;;;;;;4.22;3.17;;;21.30;40.40;;;;;;5048634;28;20489;-71
2022/01/14 07:10:54;;;;;;;4.95;3.40;;;21.40;40.60;;;;;;5037949;28;20086;-72
2022/01/14 07:13:20;;;;;;;4.88;2.47;;;21.40;40.50;;;;;;5064012;28;20056;-72
2022/01/14 07:15:46;;;;;;;4.15;2.63;;;21.50;40.50;;;;;;5066668;28;20036;-70
2022/01/14 07:18:11;;;;;;;4.28;3.05;;;21.60;40.50;;;;;;5065045;28;20037;-72
2022/01/14 07:20:37;;;;;;;4.18;2.35;;;21.70;40.20;;;;;;5066749;28;20072;-71
2022/01/14 07:23:04;;;;;;;4.63;2.80;;;21.70;40.00;;;;;;5067513;28;20047;-74
2022/01/14 07:25:30;;;;;;;8.55;3.83;;;21.70;40.10;;;;;;5062270;28;20048;-73
2022/01/14 07:27:57;;;;;;;3.88;3.17;;;21.80;39.80;;;;;;5072444;28;20713;-73
2022/01/14 07:30:24;;;;;;;6.22;4.28;;;21.90;39.50;;;;;;5054545;28;20605;-67
2022/01/14 07:32:52;;;;;;;10.98;5.63;;;21.80;39.00;;;;;;5062313;28;20040;-68
2022/01/14 07:35:18;;;;;;;6.57;4.95;;;21.90;38.80;;;;;;5052546;28;20040;-67
2022/01/14 07:37:43;;;;;;;8.30;4.60;;;21.80;38.40;;;;;;5070846;28;20060;-70
2022/01/14 07:40:10;;;;;;;9.18;5.07;;;21.80;38.40;;;;;;5055358;28;20035;-71
2022/01/14 07:42:37;;;;;;;12.75;6.07;;;21.80;38.30;;;;;;5055416;28;21026;-72
2022/01/14 07:45:04;;;;;;;8.93;4.38;;;21.70;38.30;;;;;;5052437;28;20037;-68
2022/01/14 07:47:31;;;;;;;9.85;3.70;;;21.70;38.30;;;;;;5067876;28;20214;-69
2022/01/14 07:49:56;;;;;;;8.73;3.63;;;21.80;38.50;;;;;;5053827;28;20091;-74
2022/01/14 07:52:22;;;;;;;14.30;3.45;;;21.80;38.50;;;;;;5054306;28;20072;-69
2022/01/14 07:54:48;;;;;;;13.05;3.30;;;22.00;38.60;;;;;;5060076;28;20107;-71
2022/01/14 07:57:14;;;;;;;6.38;2.38;;;22.10;38.70;;;;;;5054919;28;20373;-70
2022/01/14 07:59:42;;;;;;;8.25;2.65;;;22.30;38.60;;;;;;5051920;28;20548;-70
2022/01/14 08:02:08;;;;;;;6.25;2.40;;;22.40;38.50;;;;;;5055820;28;20156;-69
2022/01/14 08:04:36;;;;;;;5.25;1.70;;;22.50;38.30;;;;;;5051124;28;20559;-70
2022/01/14 08:07:08;;;;;;;5.53;2.40;;;22.60;38.30;;;;;;5053325;28;20163;-70
2022/01/14 08:09:39;;;;;;;6.75;1.88;;;22.60;38.30;;;;;;5069826;28;20554;-66
2022/01/14 08:12:06;;;;;;;4.50;2.10;;;22.60;38.30;;;;;;5052608;28;20047;-72
2022/01/14 08:14:32;;;;;;;4.05;2.08;;;22.60;38.50;;;;;;5053898;28;20496;-67
2022/01/14 08:16:59;;;;;;;4.47;1.60;;;22.40;38.80;;;;;;5054979;28;20106;-68
2022/01/14 08:19:25;;;;;;;4.55;1.67;;;22.30;39.10;;;;;;5054942;28;20123;-68
2022/01/14 08:21:50;;;;;;;3.28;1.40;;;22.30;39.40;;;;;;5051238;28;20556;-70
2022/01/14 08:24:16;;;;;;;3.92;1.50;;;22.10;39.50;;;;;;5054000;28;20068;-69
2022/01/14 08:26:41;;;;;;;4.53;1.35;;;22.00;39.80;;;;;;5050659;28;20060;-67
2022/01/14 08:29:07;;;;;;;5.22;1.27;;;22.00;40.10;;;;;;5068186;28;20606;-68
2022/01/14 08:31:33;;;;;;;3.75;1.33;;;21.80;40.40;;;;;;5052006;28;20048;-69
2022/01/14 08:34:00;;;;;;;4.63;1.40;;;21.60;40.50;;;;;;5051196;28;20036;-71
2022/01/14 08:36:28;;;;;;;6.15;2.00;;;21.50;40.90;;;;;;5054519;28;20781;-68
2022/01/14 08:38:54;;;;;;;4.95;1.50;;;21.40;41.00;;;;;;5050981;28;20036;-69
2022/01/14 08:41:20;;;;;;;6.10;0.95;;;21.30;41.90;;;;;;5068028;28;20035;-68
2022/01/14 08:43:49;;;;;;;14.18;2.58;;;21.10;42.30;;;;;;5053991;28;20487;-67
2022/01/14 08:46:15;;;;;;;14.65;2.90;;;21.00;42.50;;;;;;5053757;28;20122;-64
2022/01/14 08:48:40;;;;;;;12.52;2.78;;;21.00;42.80;;;;;;5050652;28;20101;-64
2022/01/14 08:51:06;;;;;;;7.18;1.65;;;20.90;42.90;;;;;;5044655;28;20673;-67
2022/01/14 08:53:33;;;;;;;10.73;2.13;;;20.90;43.00;;;;;;5055127;28;21221;-65
2022/01/14 08:55:58;;;;;;;9.35;1.55;;;21.00;43.00;;;;;;5044361;28;20037;-68
2022/01/14 08:58:25;;;;;;;9.30;1.55;;;21.00;43.00;;;;;;5049475;28;20461;-70
2022/01/14 09:00:52;;;;;;;8.40;1.15;;;21.10;43.20;;;;;;5050881;28;20043;-71
2022/01/14 09:03:17;;;;;;;4.10;1.10;;;21.20;43.10;;;;;;5063201;28;20090;-67
2022/01/14 09:05:43;;;;;;;5.85;1.35;;;21.30;43.00;;;;;;5051535;28;20056;-68
2022/01/14 09:08:09;;;;;;;5.90;1.20;;;21.40;42.90;;;;;;5049021;28;20534;-71
2022/01/14 09:10:38;;;;;;;6.75;1.20;;;21.40;42.70;;;;;;5050729;28;20532;-70
2022/01/14 09:13:05;;;;;;;4.95;0.98;;;21.50;42.70;;;;;;5049979;28;20057;-72
2022/01/14 09:15:31;;;;;;;6.97;1.55;;;21.60;42.70;;;;;;5064043;28;20062;-78
2022/01/14 09:17:57;;;;;;;4.35;0.85;;;21.50;42.80;;;;;;5049099;28;20636;-75
2022/01/14 09:20:23;;;;;;;6.72;1.83;;;21.50;42.90;;;;;;5044978;28;20065;-75
2022/01/14 09:22:51;;;;;;;7.50;2.50;;;21.50;42.40;;;;;;5050749;28;20156;-67
2022/01/14 09:25:18;;;;;;;5.57;2.88;;;21.40;41.50;;;;;;5058826;28;20052;-67
2022/01/14 09:27:44;;;;;;;8.70;2.83;;;21.30;41.00;;;;;;5043688;28;20037;-67
2022/01/14 09:30:13;;;;;;;8.68;2.40;;;21.20;40.60;;;;;;5044200;28;20128;-67
2022/01/14 09:32:39;;;;;;;5.50;2.08;;;21.10;40.50;;;;;;5044795;28;20044;-66
2022/01/14 09:35:07;;;;;;;10.52;4.90;;;21.10;40.70;;;;;;5043009;28;20032;-67
2022/01/14 09:37:33;;;;;;;8.90;4.40;;;21.10;40.50;;;;;;5044752;28;20048;-68
2022/01/14 09:39:59;;;;;;;8.60;4.05;;;21.10;40.00;;;;;;5048635;28;20041;-68
2022/01/14 09:42:30;;;;;;;8.07;4.22;;;21.10;40.00;;;;;;5044042;28;20040;-68
2022/01/14 09:44:56;;;;;;;8.40;4.18;;;21.10;39.70;;;;;;5049438;28;20048;-69
2022/01/14 09:47:25;;;;;;;7.72;4.22;;;21.20;39.40;;;;;;5062243;28;20040;-69
2022/01/14 09:49:51;;;;;;;5.32;3.50;;;21.30;39.10;;;;;;5052228;28;20045;-66
2022/01/14 09:52:20;;;;;;;15.55;3.83;;;21.40;39.00;;;;;;5044260;28;20036;-73
2022/01/14 09:54:48;;;;;;;6.68;3.33;;;21.40;38.90;;;;;;5055333;28;20045;-71
2022/01/14 09:57:15;;;;;;;8.18;2.60;;;21.40;38.80;;;;;;5050510;28;20037;-75
2022/01/14 09:59:41;;;;;;;6.50;2.08;;;21.50;39.60;;;;;;5052103;28;20049;-73
2022/01/14 10:02:07;;;;;;;7.72;2.28;;;21.60;39.00;;;;;;5045790;28;20036;-77
2022/01/14 10:04:33;;;;;;;8.88;2.35;;;21.70;39.20;;;;;;5052688;28;20044;-75
2022/01/14 10:07:00;;;;;;;16.92;2.35;;;21.80;39.50;;;;;;5061820;28;20563;-79
2022/01/14 10:12:14;;;;;;;8.18;1.15;;;21.90;39.70;;;;;;5063307;27;20513;-73
2022/01/14 10:14:51;;;;;;;5.25;1.40;;;22.10;39.90;;;;;;5057907;28;20163;-76
2022/01/14 10:17:17;;;;;;;4.95;1.33;;;22.20;40.00;;;;;;5054400;28;20051;-74
2022/01/14 10:19:44;;;;;;;6.22;1.42;;;22.30;40.00;;;;;;5061547;28;20064;-77
2022/01/14 10:27:50;;;;;;;5.78;1.25;;;22.40;40.40;;;;;;5051514;27;20420;-71
2022/01/14 10:35:37;;;;;;;5.22;1.52;;;22.30;40.70;;;;;;5069546;27;20766;-69
2022/01/14 10:38:07;;;;;;;3.38;0.60;;;22.20;41.10;;;;;;5070384;28;20133;-67
2022/01/14 10:40:37;;;;;;;4.53;1.10;;;22.10;41.20;;;;;;5049329;28;20056;-68
2022/01/14 10:43:07;;;;;;;3.63;0.65;;;22.10;41.20;;;;;;5046266;28;20707;-67
2022/01/14 10:45:37;;;;;;;3.85;1.00;;;22.10;41.30;;;;;;5054437;28;20060;-67
2022/01/14 10:48:08;;;;;;;6.00;0.63;;;22.10;41.40;;;;;;5069499;28;20067;-67
2022/01/14 10:50:45;;;;;;;3.10;1.00;;;22.10;41.50;;;;;;5054817;28;20290;-66
2022/01/14 10:53:14;;;;;;;4.97;1.80;;;22.10;41.20;;;;;;5057204;28;20127;-69
2022/01/14 10:58:26;;;;;;;3.85;0.70;;;22.00;41.10;;;;;;5051878;27;22510;-69
2022/01/14 11:00:59;;;;;;;3.53;0.70;;;21.90;41.30;;;;;;5066184;28;20044;-68
2022/01/14 11:03:46;;;;;;;4.07;0.88;;;21.90;41.50;;;;;;5048494;28;20091;-67
2022/01/14 11:09:04;;;;;;;4.75;1.35;;;21.80;41.70;;;;;;5069168;27;20943;-67
2022/01/14 11:11:32;;;;;;;6.68;1.10;;;21.70;41.20;;;;;;5070354;28;20047;-69
2022/01/14 11:13:58;;;;;;;4.75;1.40;;;21.60;41.00;;;;;;5069480;28;20480;-73
2022/01/14 11:16:24;;;;;;;8.18;1.60;;;21.50;40.60;;;;;;5067692;28;20052;-72
2022/01/14 11:18:50;;;;;;;6.07;1.83;;;21.40;40.10;;;;;;5060493;28;20443;-71
2022/01/14 11:24:04;;;;;;;3.70;1.63;;;21.20;39.50;;;;;;5076017;28;20098;-74
2022/01/14 11:26:34;;;;;;;4.05;1.20;;;21.20;39.30;;;;;;5052924;28;20538;-70
2022/01/14 11:29:08;;;;;;;2.83;1.00;;;21.10;39.10;;;;;;5051825;28;20049;-70
2022/01/14 11:31:37;;;;;;;9.02;1.35;;;21.20;39.00;;;;;;5054958;28;20503;-69
2022/01/14 11:34:06;;;;;;;6.72;1.23;;;21.20;38.80;;;;;;5072617;28;20392;-70
2022/01/14 11:36:53;;;;;;;5.68;1.02;;;21.30;38.80;;;;;;5074027;28;20581;-68
2022/01/14 11:39:24;;;;;;;3.38;1.10;;;21.30;38.80;;;;;;5056059;28;20063;-74
2022/01/14 11:41:52;;;;;;;7.38;1.20;;;21.30;38.80;;;;;;5067449;28;20041;-74
2022/01/14 11:53:05;;;;;;;2.70;0.60;;;21.40;38.50;;;;;;5097451;27;20438;-72
2022/01/14 11:58:22;;;;;;;2.38;0.50;;;21.90;38.40;;;;;;5090518;27;20433;-72
2022/01/14 12:00:50;;;;;;;3.60;0.60;;;22.40;38.10;;;;;;5078165;28;20054;-72
2022/01/14 12:06:05;;;;;;;5.72;1.00;;;22.50;37.80;;;;;;5107292;27;20869;-70
2022/01/14 12:08:36;;;;;;;3.50;0.68;;;22.50;36.60;;;;;;5083634;28;20036;-69
2022/01/14 12:19:16;;;;;;;4.78;0.43;;;22.10;38.40;;;;;;5110787;27;20498;-68
2022/01/14 12:29:47;;;;;;;5.28;0.75;;;22.00;38.80;;;;;;5099939;27;20445;-67
2022/01/14 12:35:07;;;;;;;1.77;0.50;;;21.90;40.10;;;;;;5087440;27;20470;-68
2022/01/14 12:42:58;;;;;;;8.93;0.95;;;21.90;40.30;;;;;;5089930;27;20418;-68
2022/01/14 12:51:03;;;;;;;2.97;0.40;;;22.10;40.50;;;;;;5074639;27;21121;-72
2022/01/14 12:53:29;;;;;;;8.15;1.35;;;22.10;40.50;;;;;;5074694;28;20056;-69
2022/01/14 12:55:54;;;;;;;2.83;0.30;;;22.20;40.50;;;;;;5062924;28;20579;-65
2022/01/14 12:58:20;;;;;;;4.70;0.45;;;22.20;40.70;;;;;;5059392;28;20052;-66
2022/01/14 13:00:46;;;;;;;6.00;0.85;;;22.10;40.70;;;;;;5058864;28;20132;-67
2022/01/14 13:03:14;;;;;;;8.43;0.60;;;22.10;40.80;;;;;;5062493;28;20082;-71
2022/01/14 13:05:39;;;;;;;4.75;0.38;;;22.00;41.00;;;;;;5059312;28;20051;-70
2022/01/14 13:08:05;;;;;;;2.65;0.47;;;21.90;41.20;;;;;;5049816;28;20049;-69
2022/01/14 13:10:32;;;;;;;1.73;0.30;;;21.80;41.40;;;;;;5060658;28;20049;-66
2022/01/14 13:13:01;;;;;;;4.32;0.50;;;21.80;41.60;;;;;;5059990;28;20047;-75
2022/01/14 13:15:27;;;;;;;2.97;0.40;;;21.70;41.80;;;;;;5062532;28;20044;-70
2022/01/14 13:17:58;;;;;;;6.38;0.40;;;21.70;42.50;;;;;;5060815;28;20087;-67
2022/01/14 13:20:29;;;;;;;2.08;0.57;;;21.60;42.00;;;;;;5054823;28;20040;-68
2022/01/14 13:22:55;;;;;;;2.45;0.30;;;21.50;42.30;;;;;;5055129;28;20045;-74
2022/01/14 13:25:28;;;;;;;4.97;1.20;;;21.50;42.50;;;;;;5059040;28;20132;-74
2022/01/14 13:27:57;;;;;;;3.25;0.45;;;21.40;42.40;;;;;;5055054;28;20044;-70
2022/01/14 13:33:07;;;;;;;3.25;0.38;;;21.30;42.30;;;;;;5059621;27;20416;-73
2022/01/14 13:35:35;;;;;;;5.90;1.13;;;21.20;42.50;;;;;;5030307;28;20580;-72
2022/01/14 13:38:03;;;;;;;4.63;0.50;;;21.10;42.60;;;;;;5037147;28;20124;-70
2022/01/14 13:40:42;;;;;;;3.72;0.30;;;21.10;42.60;;;;;;5033993;28;20041;-69
2022/01/14 13:45:48;;;;;;;3.30;0.40;;;21.00;42.80;;;;;;5064309;27;20923;-68
2022/01/14 13:48:22;;;;;;;3.47;0.40;;;21.00;43.10;;;;;;5071634;28;20056;-67
2022/01/14 13:50:51;;;;;;;1.80;0.30;;;21.00;42.90;;;;;;5079296;28;20048;-69
2022/01/14 13:53:21;;;;;;;4.57;0.50;;;21.00;42.80;;;;;;5074161;28;20036;-71
2022/01/14 13:55:51;;;;;;;4.47;0.68;;;21.00;42.80;;;;;;5082029;28;20585;-70
2022/01/14 13:58:21;;;;;;;2.87;0.70;;;21.00;42.80;;;;;;5083577;28;20044;-70
2022/01/14 14:00:49;;;;;;;4.50;0.43;;;21.00;42.40;;;;;;5084882;28;20047;-71
2022/01/14 14:06:04;;;;;;;5.15;0.63;;;21.00;41.70;;;;;;5084413;28;20425;-69
2022/01/14 14:08:45;;;;;;;3.97;0.60;;;20.90;41.30;;;;;;5080541;28;20048;-72
2022/01/14 14:16:43;;;;;;;4.53;0.50;;;21.00;41.40;;;;;;5082876;28;20363;-74
2022/01/14 14:19:09;;;;;;;3.28;0.43;;;21.40;41.30;;;;;;5097492;28;20044;-67
2022/01/14 14:21:34;;;;;;;3.08;0.60;;;21.50;41.00;;;;;;5083908;28;20036;-66
2022/01/14 14:24:02;;;;;;;3.58;0.55;;;21.70;40.80;;;;;;5080791;28;20040;-67
2022/01/14 14:26:31;;;;;;;6.85;0.70;;;21.90;40.20;;;;;;5080408;28;20033;-69
2022/01/14 14:29:00;;;;;;;6.70;0.60;;;21.90;39.50;;;;;;5080682;28;20451;-69
2022/01/14 14:31:28;;;;;;;5.68;0.70;;;21.90;39.20;;;;;;5072841;28;20044;-68
2022/01/14 14:33:53;;;;;;;4.00;0.57;;;21.80;39.30;;;;;;5072230;28;20040;-69